AirNav   Phillips 66 Aviation Fuel
 
 485 users online  

ID74 Sulphur Creek Ranch Airport
Cascade, Idaho, USA


FAA INFORMATION EFFECTIVE 01 FEBRUARY 2018

Location

FAA Identifier: ID74
Lat/Long: 44-32-11.6510N / 115-21-03.3870W
44-32.194183N / 115-21.056450W
44.5365697 / -115.3509408
(estimated)
Elevation: 5835 ft. / 1779 m (estimated)
Variation: 16E (1995)
From city: 50 miles E of CASCADE, ID
Time zone: UTC -7 (UTC -6 during Daylight Saving Time)
Zip code: 83611

Airport Operations

Airport use: Private use. Permission required prior to landing
Activation date: 05/1996
Control tower: no
ARTCC: SALT LAKE CITY CENTER
FSS: BOISE FLIGHT SERVICE STATION
Attendance: JUN-NOV 24 HOURS/DAY
Wind indicator: lighted
Segmented circle: no

Nearby radio navigation aids

VOR radial/distance  VOR name  Freq  Var
DNJr092/39.0DONNELLY VOR/DME116.2019E

Airport Services

Runway Information

Runway 10/28

Dimensions: 3300 x 40 ft. / 1006 x 12 m
Surface: gravel/turf, in good condition
Operational restrictions: LAND TO THE WEST; TAKEOFF TO THE EAST.
RUNWAY 10  RUNWAY 28
Traffic pattern: leftleft
Obstructions: treestrees

Airport Ownership and Management from official FAA records

Ownership: Privately-owned
Owner: TOM T ALLEGREZZA
7153 W EMERALD
BOISE, ID 83704
Phone 208-377-1188
Manager: 7153 W EMERALD
BOISE ID 83704
208-377-1188
Phone 208-377-1188

Instrument Procedures

There are no published instrument procedures at ID74.

Some nearby airports with instrument procedures:

KMYL - Mc Call Municipal Airport (38 nm NW)
KBOI - Boise Air Terminal/Gowen Field (69 nm SW)
KSMN - Lemhi County Airport (72 nm NE)
S87 - Weiser Municipal Airport (72 nm W)
KMAN - Nampa Municipal Airport (76 nm SW)
 
Loc | Ops | Rwys | IFR | FBO | Links
Com | Nav | Svcs | Stats | Notes

AirNav Hotels Sweepstakes
 
Area around ID74 (Sulphur Creek Ranch Airport)
 
Road maps at: MapQuest Bing Google
 
Aerial photo
WARNING: Photo may not be current or correct
Aerial photo of ID74 (Sulphur Creek Ranch Airport)
Photo taken 05-Jul-2008

Do you have a better or more recent aerial photo of Sulphur Creek Ranch Airport that you would like to share? If so, please send us your photo.

 
Sectional chart

 
Airport distance calculator
Flying to Sulphur Creek Ranch Airport? Find the distance to fly.

From to ID74

Sunrise and sunset
Times for 20-Feb-2018
 Local
(UTC-7)
 Zulu
(UTC)
Morning civil twilight07:0514:05
Sunrise07:3514:35
Sunset18:1601:16
Evening civil twilight18:4501:45

Current date and time
Zulu (UTC)  21-Feb-2018 06:31:50
Local (UTC-7)  20-Feb-2018 23:31:50
 
METAR
KSNT 
29nm SE 
210551Z AUTO 17006KT M17/M22 A2997 RMK AO1 SLP237 T11721217 11094 21189 51014
KMYL 
38nm NW 
210613Z AUTO 01003KT 3SM -SN OVC033 M13/M16 A3002 RMK AO2 P0000 T11331161
KLLJ 
49nm E 
210555Z AUTO 00000KT 10SM CLR M11/M17 A3002 RMK AO2 SLP227 T11061172 11039 21106 51017
TAF
KMYL 
38nm NW 
210538Z 2106/2206 VRB06KT 3SM -SN BR OVC020 FM211200 VRB06KT 2SM -SN BR OVC009 FM212100 VRB06KT 5SM -SN SCT010 OVC020
NOTAMs
Click for the latest NOTAMs
NOTAMs are issued by the DoD/FAA and will open in a separate window not controlled by AirNav.

 

 
 

Would you like to see your business listed on this page?

 If your business provides an interesting product or service to pilots, flight crews, aircraft, or users of the Sulphur Creek Ranch Airport, you should consider listing it here.  To start the listing process, click on the button below
 
Add a business
 

Other Pages about Sulphur Creek Ranch Airport

www.skypark.org/More_Strips.htm
 
Update a link
 
Copyright © AirNav, LLC. All rights reserved. Privacy Policy  Contact